createdAt,value
2023-02-19T00:01:53.510Z,101107.81
2023-02-19T00:05:54.812Z,101099.44
2023-02-19T00:09:56.188Z,101094.16
2023-02-19T00:14:00.057Z,101084.75
2023-02-19T00:18:01.357Z,101090.91
2023-02-19T00:22:02.763Z,101089.91
2023-02-19T00:26:17.745Z,101093.81
2023-02-19T00:30:20.207Z,101083.81
2023-02-19T00:34:21.529Z,101081.53
2023-02-19T00:38:22.938Z,101075.41
2023-02-19T00:42:25.733Z,101072.88
2023-02-19T00:46:38.719Z,101077.47
2023-02-19T00:50:40.057Z,101071.38
2023-02-19T00:54:41.453Z,101072.31
2023-02-19T00:58:43.075Z,101074.06
2023-02-19T01:02:44.423Z,101058.84
2023-02-19T01:06:45.781Z,101066.84
2023-02-19T01:10:47.754Z,101063.50
2023-02-19T01:14:49.085Z,101070.41
2023-02-19T01:18:50.819Z,101055.91
2023-02-19T01:22:52.468Z,101061.16
2023-02-19T01:26:54.338Z,101053.88
2023-02-19T01:30:55.657Z,101050.13
2023-02-19T01:34:57.041Z,101047.31
2023-02-19T01:39:00.653Z,101055.69
2023-02-19T01:43:03.594Z,101052.91
2023-02-19T01:47:04.953Z,101054.63
2023-02-19T01:51:11.262Z,101051.78
2023-02-19T01:55:14.139Z,101051.81
2023-02-19T01:59:18.236Z,101051.69
2023-02-19T02:03:20.685Z,101050.56
2023-02-19T02:07:52.445Z,101042.59
2023-02-19T02:11:53.860Z,101049.28
2023-02-19T02:16:20.429Z,101052.38
2023-02-19T02:20:46.537Z,101037.03
2023-02-19T02:25:09.530Z,101048.75
2023-02-19T02:29:29.266Z,101058.13
2023-02-19T02:33:30.588Z,101044.91
2023-02-19T02:37:35.606Z,101046.06
2023-02-19T02:41:43.855Z,101045.75
2023-02-19T02:45:45.268Z,101041.72
2023-02-19T02:50:05.085Z,101041.41
2023-02-19T02:54:44.531Z,101040.59
2023-02-19T02:58:48.418Z,101033.44
2023-02-19T03:02:49.966Z,101032.88
2023-02-19T03:06:52.463Z,101046.06
2023-02-19T03:11:28.329Z,101057.50
2023-02-19T03:15:54.298Z,101047.38
2023-02-19T03:19:58.556Z,101055.34
2023-02-19T03:24:19.063Z,101061.59
2023-02-19T03:28:43.797Z,101062.63
2023-02-19T03:32:48.536Z,101066.13
2023-02-19T03:37:00.433Z,101063.72
2023-02-19T03:41:40.397Z,101078.63
2023-02-19T03:45:49.129Z,101074.06
2023-02-19T03:49:59.857Z,101078.13
2023-02-19T03:54:24.077Z,101088.25
2023-02-19T03:58:35.276Z,101085.31
2023-02-19T04:02:43.637Z,101096.94
2023-02-19T04:06:52.491Z,101097.66
2023-02-19T04:10:55.178Z,101101.44
2023-02-19T04:15:06.432Z,101108.41
2023-02-19T04:19:19.712Z,101095.78
2023-02-19T04:23:24.889Z,101117.63
2023-02-19T04:27:26.562Z,101123.03
2023-02-19T04:31:31.292Z,101133.25
2023-02-19T04:35:32.743Z,101143.03
2023-02-19T04:39:34.175Z,101138.41
2023-02-19T04:43:35.462Z,101155.31
2023-02-19T04:47:36.761Z,101151.97
2023-02-19T04:51:39.332Z,101159.28
2023-02-19T04:55:40.693Z,101134.34
2023-02-19T04:59:42.091Z,101155.16
2023-02-19T05:03:43.969Z,101154.47
2023-02-19T05:07:45.301Z,101170.66
2023-02-19T05:11:46.648Z,101165.84
2023-02-19T05:16:15.953Z,101176.25
2023-02-19T05:20:17.378Z,101186.13
2023-02-19T05:24:19.040Z,101177.25
2023-02-19T05:28:21.830Z,101187.06
2023-02-19T05:32:23.176Z,101195.72
2023-02-19T05:36:24.549Z,101188.66
2023-02-19T05:40:25.879Z,101202.34
2023-02-19T05:44:27.362Z,101212.25
2023-02-19T05:48:28.662Z,101229.38
2023-02-19T05:52:29.950Z,101220.75
2023-02-19T05:56:41.974Z,101227.44
2023-02-19T06:00:43.297Z,101231.91
2023-02-19T06:04:44.600Z,101241.03
2023-02-19T06:08:47.667Z,101241.72
2023-02-19T06:12:53.329Z,101241.94
2023-02-19T06:16:54.659Z,101249.06
2023-02-19T06:21:07.860Z,101257.81
2023-02-19T06:25:12.443Z,101249.03
2023-02-19T06:29:13.759Z,101255.41
2023-02-19T06:33:15.093Z,101265.03
2023-02-19T06:37:16.662Z,101262.22
2023-02-19T06:41:18.854Z,101264.66
2023-02-19T06:45:20.451Z,101263.97
2023-02-19T06:49:22.110Z,101276.84
2023-02-19T06:53:23.582Z,101278.94
2023-02-19T06:57:24.930Z,101279.59
2023-02-19T07:01:27.145Z,101284.81
2023-02-19T07:05:28.436Z,101291.22
2023-02-19T07:09:29.813Z,101292.66
2023-02-19T07:13:31.304Z,101303.06
2023-02-19T07:17:34.382Z,101321.84
2023-02-19T07:21:37.965Z,101334.28
2023-02-19T07:25:39.605Z,101337.94
2023-02-19T07:29:40.950Z,101334.97
2023-02-19T07:33:46.276Z,101339.97
2023-02-19T07:37:47.655Z,101337.88
2023-02-19T07:41:48.911Z,101356.38
2023-02-19T07:45:50.636Z,101375.44
2023-02-19T07:49:51.980Z,101375.69
2023-02-19T07:53:53.458Z,101383.13
2023-02-19T07:57:54.896Z,101385.38
2023-02-19T08:02:14.986Z,101388.53
2023-02-19T08:06:16.356Z,101400.06
2023-02-19T08:10:36.413Z,101398.53
2023-02-19T08:14:37.734Z,101414.81
2023-02-19T08:18:39.334Z,101412.78
2023-02-19T08:22:40.782Z,101416.97
2023-02-19T08:26:42.142Z,101417.53
2023-02-19T08:30:45.699Z,101415.97
2023-02-19T08:34:47.031Z,101430.06
2023-02-19T08:38:48.394Z,101434.38
2023-02-19T08:42:49.967Z,101446.63
2023-02-19T08:46:51.236Z,101442.81
2023-02-19T08:50:57.368Z,101447.81
2023-02-19T08:54:59.388Z,101452.19
2023-02-19T08:59:01.004Z,101453.22
2023-02-19T09:03:02.389Z,101451.59
2023-02-19T09:07:07.578Z,101460.47
2023-02-19T09:11:09.180Z,101455.66
2023-02-19T09:15:10.779Z,101456.34
2023-02-19T09:19:12.081Z,101461.78
2023-02-19T09:23:13.414Z,101459.97
2023-02-19T09:27:16.969Z,101461.16
2023-02-19T09:31:18.381Z,101473.53
2023-02-19T09:35:19.718Z,101481.63
2023-02-19T09:39:21.605Z,101486.06
2023-02-19T09:43:26.365Z,101493.69
2023-02-19T09:47:31.327Z,101493.09
2023-02-19T09:51:36.527Z,101501.59
2023-02-19T09:55:43.414Z,101512.75
2023-02-19T09:59:57.540Z,101508.31
2023-02-19T10:03:58.868Z,101511.72
2023-02-19T10:08:04.536Z,101518.25
2023-02-19T10:12:15.994Z,101521.66
2023-02-19T10:16:26.788Z,101522.28
2023-02-19T10:20:28.218Z,101519.50
2023-02-19T10:24:30.722Z,101536.34
2023-02-19T10:28:35.911Z,101548.22
2023-02-19T10:32:37.647Z,101570.66
2023-02-19T10:36:41.914Z,101566.19
2023-02-19T10:40:46.896Z,101570.66
2023-02-19T10:44:58.721Z,101581.84
2023-02-19T10:49:30.187Z,101590.28
2023-02-19T10:53:47.524Z,101595.72
2023-02-19T10:57:50.353Z,101608.78
2023-02-19T11:01:59.406Z,101608.41
2023-02-19T11:06:06.741Z,101618.16
2023-02-19T11:10:21.400Z,101617.38
2023-02-19T11:14:24.729Z,101606.81
2023-02-19T11:18:31.791Z,101615.75
2023-02-19T11:22:39.937Z,101618.91
2023-02-19T11:26:41.384Z,101615.63
2023-02-19T11:30:45.058Z,101621.22
2023-02-19T11:34:47.751Z,101618.50
2023-02-19T11:38:50.240Z,101616.31
2023-02-19T11:43:12.764Z,101623.34
2023-02-19T11:47:44.824Z,101623.91
2023-02-19T11:51:55.220Z,101616.47
2023-02-19T11:56:18.263Z,101610.22
2023-02-19T12:00:44.490Z,101600.50
2023-02-19T12:05:01.000Z,101602.97
2023-02-19T12:09:14.673Z,101598.78
2023-02-19T12:13:46.476Z,101591.81
2023-02-19T12:17:55.619Z,101579.38
2023-02-19T12:22:16.051Z,101590.56
2023-02-19T12:26:54.992Z,101590.97
2023-02-19T12:31:14.258Z,101589.97
2023-02-19T12:35:32.697Z,101584.66
2023-02-19T12:39:45.672Z,101586.34
2023-02-19T12:43:54.421Z,101591.69
2023-02-19T12:48:08.059Z,101592.19
2023-02-19T12:52:21.926Z,101581.72
2023-02-19T12:56:30.828Z,101602.09
2023-02-19T13:00:44.289Z,101598.19
2023-02-19T13:04:58.041Z,101605.41
2023-02-19T13:09:11.801Z,101610.59
2023-02-19T13:13:21.782Z,101621.22
2023-02-19T13:17:31.880Z,101630.56
2023-02-19T13:21:56.434Z,101635.94
2023-02-19T13:26:23.550Z,101639.56
2023-02-19T13:30:37.483Z,101647.50
2023-02-19T13:34:59.635Z,101642.25
2023-02-19T13:39:05.641Z,101650.59
2023-02-19T13:43:34.841Z,101657.97
2023-02-19T13:47:59.144Z,101648.66
2023-02-19T13:52:29.757Z,101655.06
2023-02-19T13:56:34.182Z,101661.00
2023-02-19T14:00:51.773Z,101652.47
2023-02-19T14:05:02.336Z,101661.72
2023-02-19T14:09:03.837Z,101660.38
2023-02-19T14:13:08.399Z,101667.22
2023-02-19T14:17:09.644Z,101674.59
2023-02-19T14:21:17.436Z,101688.09
2023-02-19T14:25:31.055Z,101682.63
2023-02-19T14:29:35.296Z,101687.66
2023-02-19T14:33:40.172Z,101696.53
2023-02-19T14:37:44.958Z,101700.91
2023-02-19T14:41:51.264Z,101712.38
2023-02-19T14:46:07.999Z,101713.31
2023-02-19T14:50:17.478Z,101721.41
2023-02-19T14:54:35.014Z,101717.66
2023-02-19T14:58:36.927Z,101722.66
2023-02-19T15:02:42.999Z,101729.16
2023-02-19T15:06:44.450Z,101725.41
2023-02-19T15:10:46.833Z,101720.88
2023-02-19T15:14:50.751Z,101715.13
2023-02-19T15:18:54.273Z,101709.34
2023-02-19T15:22:58.424Z,101704.63
2023-02-19T15:26:59.873Z,101695.22
2023-02-19T15:31:02.066Z,101695.28
2023-02-19T15:35:04.644Z,101690.75
2023-02-19T15:39:06.081Z,101680.53
2023-02-19T15:43:26.323Z,101668.38
2023-02-19T15:47:43.787Z,101665.00
2023-02-19T15:52:00.048Z,101656.13
2023-02-19T15:56:09.672Z,101653.94
2023-02-19T16:00:23.719Z,101659.09
2023-02-19T16:04:25.132Z,101656.22
2023-02-19T16:08:35.392Z,101662.13
2023-02-19T16:12:36.755Z,101661.09
2023-02-19T16:16:41.059Z,101664.63
2023-02-19T16:20:47.578Z,101675.31
2023-02-19T16:24:52.710Z,101684.38
2023-02-19T16:28:55.205Z,101688.53
2023-02-19T16:33:21.557Z,101695.31
2023-02-19T16:37:41.177Z,101696.88
2023-02-19T16:41:46.522Z,101704.81
2023-02-19T16:45:47.910Z,101705.50
2023-02-19T16:49:49.283Z,101702.38
2023-02-19T16:53:50.727Z,101707.22
2023-02-19T16:57:52.423Z,101733.97
2023-02-19T17:01:53.790Z,101743.25
2023-02-19T17:05:56.313Z,101743.84
2023-02-19T17:09:57.812Z,101754.19
2023-02-19T17:13:59.257Z,101754.41
2023-02-19T17:18:00.641Z,101770.59
2023-02-19T17:22:02.051Z,101778.66
2023-02-19T17:26:03.479Z,101782.53
2023-02-19T17:30:15.487Z,101804.06
2023-02-19T17:34:16.969Z,101807.94
2023-02-19T17:38:18.368Z,101815.94
2023-02-19T17:42:19.995Z,101811.22
2023-02-19T17:46:23.574Z,101825.09
2023-02-19T17:50:28.680Z,101822.78
2023-02-19T17:54:30.167Z,101831.50
2023-02-19T17:58:31.552Z,101829.97
2023-02-19T18:02:32.930Z,101840.94
2023-02-19T18:06:35.900Z,101842.91
2023-02-19T18:10:37.394Z,101846.47
2023-02-19T18:14:38.731Z,101854.16
2023-02-19T18:18:40.329Z,101859.78
2023-02-19T18:22:42.444Z,101847.72
2023-02-19T18:26:44.580Z,101861.38
2023-02-19T18:30:45.965Z,101860.94
2023-02-19T18:34:52.547Z,101859.66
2023-02-19T18:38:54.021Z,101860.00
2023-02-19T18:42:55.657Z,101858.78
2023-02-19T18:46:57.092Z,101862.44
2023-02-19T18:50:58.502Z,101858.06
2023-02-19T18:55:00.518Z,101865.63
2023-02-19T18:59:04.275Z,101867.22
2023-02-19T19:03:06.419Z,101876.06
2023-02-19T19:07:09.266Z,101887.56
2023-02-19T19:11:11.067Z,101884.38
2023-02-19T19:15:12.732Z,101886.31
2023-02-19T19:19:14.737Z,101883.06
2023-02-19T19:23:16.130Z,101889.66
2023-02-19T19:27:20.716Z,101890.16
2023-02-19T19:31:22.982Z,101895.25
2023-02-19T19:35:24.339Z,101909.00
2023-02-19T19:39:25.714Z,101895.81
2023-02-19T19:43:31.350Z,101905.25
2023-02-19T19:47:32.772Z,101911.25
2023-02-19T19:51:35.135Z,101910.66
2023-02-19T19:55:36.733Z,101902.41
2023-02-19T19:59:39.226Z,101905.97
2023-02-19T20:03:40.616Z,101901.56
2023-02-19T20:07:42.253Z,101904.06
2023-02-19T20:11:48.878Z,101915.25
2023-02-19T20:15:51.333Z,101913.69
2023-02-19T20:19:53.454Z,101926.03
2023-02-19T20:23:54.798Z,101923.63
2023-02-19T20:27:56.250Z,101919.88
2023-02-19T20:32:02.457Z,101931.44
2023-02-19T20:36:04.237Z,101927.00
2023-02-19T20:40:06.998Z,101938.31
2023-02-19T20:44:08.296Z,101939.81
2023-02-19T20:48:09.634Z,101951.09
2023-02-19T20:52:10.928Z,101939.16
2023-02-19T20:56:12.829Z,101945.00
2023-02-19T21:00:15.596Z,101949.72
2023-02-19T21:04:18.311Z,101942.75
2023-02-19T21:08:19.614Z,101948.88
2023-02-19T21:12:22.433Z,101957.69
2023-02-19T21:16:23.736Z,101959.50
2023-02-19T21:20:25.099Z,101969.78
2023-02-19T21:24:26.432Z,101969.34
2023-02-19T21:28:27.800Z,101971.13
2023-02-19T21:32:29.181Z,101978.59
2023-02-19T21:36:30.876Z,101985.44
2023-02-19T21:40:32.874Z,101977.16
2023-02-19T21:44:34.268Z,101978.00
2023-02-19T21:48:35.568Z,101970.47
2023-02-19T21:52:38.463Z,101970.81
2023-02-19T21:56:39.845Z,101980.00
2023-02-19T22:00:41.216Z,101979.41
2023-02-19T22:04:42.479Z,101975.66
2023-02-19T22:08:44.569Z,101975.75
2023-02-19T22:12:47.095Z,101961.22
2023-02-19T22:16:51.788Z,101965.28
2023-02-19T22:20:53.206Z,101957.72
2023-02-19T22:24:56.745Z,101958.53
2023-02-19T22:28:59.442Z,101973.84
2023-02-19T22:33:00.869Z,101976.88
2023-02-19T22:37:02.189Z,101984.59
2023-02-19T22:41:03.553Z,101974.06
2023-02-19T22:45:06.081Z,101988.63
2023-02-19T22:49:07.576Z,101978.53
2023-02-19T22:53:08.891Z,101962.53
2023-02-19T22:57:10.209Z,101960.41
2023-02-19T23:01:14.057Z,101965.41
2023-02-19T23:05:16.182Z,101952.25
2023-02-19T23:09:19.318Z,101954.56
2023-02-19T23:13:20.713Z,101960.06
2023-02-19T23:17:21.988Z,101958.78
2023-02-19T23:21:23.424Z,101956.34
2023-02-19T23:25:24.787Z,101957.84
2023-02-19T23:29:27.873Z,101957.75
2023-02-19T23:33:29.284Z,101944.50
2023-02-19T23:37:30.655Z,101954.16
2023-02-19T23:41:32.022Z,101940.22
2023-02-19T23:45:33.440Z,101937.13
2023-02-19T23:49:34.828Z,101937.97
2023-02-19T23:53:36.141Z,101930.91
2023-02-19T23:57:37.492Z,101934.88
